Time;durP1;ratioP1;P1;durP2;ratioP2;P2;SDS_P1;SDS_P2;PMS_P1;PMS_P2;Temp;Humidity;BMP_temperature;BMP_pressure;BME280_temperature;BME280_humidity;BME280_pressure;Samples;Min_cycle;Max_cycle;Signal;HPM_P1;HPM_P2
2023/05/15 00:01:53;;;;;;;54.53;25.67;;;12.50;91.60;;;;;;5014540;28;20128;-68
2023/05/15 00:04:18;;;;;;;53.85;25.08;;;12.50;91.70;;;;;;5018468;28;20041;-68
2023/05/15 00:06:44;;;;;;;57.53;27.33;;;12.50;91.70;;;;;;5005165;28;20057;-68
2023/05/15 00:09:09;;;;;;;53.85;25.27;;;12.50;91.80;;;;;;5016984;28;20045;-68
2023/05/15 00:11:35;;;;;;;54.03;25.13;;;12.50;91.80;;;;;;5016895;28;20124;-68
2023/05/15 00:14:00;;;;;;;47.08;22.83;;;12.50;91.70;;;;;;5014567;28;20041;-68
2023/05/15 00:16:26;;;;;;;50.42;24.50;;;12.50;91.70;;;;;;5013615;28;20074;-68
2023/05/15 00:18:52;;;;;;;58.13;27.83;;;12.50;91.80;;;;;;5015427;28;20033;-68
2023/05/15 00:21:17;;;;;;;51.13;24.95;;;12.50;91.80;;;;;;5015988;28;20044;-68
2023/05/15 00:23:43;;;;;;;56.72;26.02;;;12.40;91.80;;;;;;5015825;28;20037;-68
2023/05/15 00:26:08;;;;;;;52.53;24.63;;;12.30;92.30;;;;;;5016028;28;20478;-68
2023/05/15 00:28:34;;;;;;;52.97;25.55;;;12.40;91.90;;;;;;5015560;28;20037;-68
2023/05/15 00:30:59;;;;;;;51.63;26.17;;;12.40;91.90;;;;;;5012038;28;20041;-68
2023/05/15 00:33:25;;;;;;;57.70;25.92;;;12.40;92.00;;;;;;5011853;28;20363;-68
2023/05/15 00:35:51;;;;;;;57.42;26.45;;;12.30;92.00;;;;;;5007318;28;20159;-69
2023/05/15 00:38:16;;;;;;;53.58;25.58;;;12.20;92.20;;;;;;5024789;28;20033;-68
2023/05/15 00:40:43;;;;;;;54.25;25.30;;;12.30;92.20;;;;;;5011922;28;20092;-68
2023/05/15 00:43:11;;;;;;;54.72;26.88;;;12.30;92.30;;;;;;4999972;28;20060;-68
2023/05/15 00:45:39;;;;;;;54.05;25.67;;;12.30;92.20;;;;;;5008459;28;20457;-69
2023/05/15 00:48:08;;;;;;;55.35;26.27;;;12.30;92.20;;;;;;5011539;28;20115;-69
2023/05/15 00:50:33;;;;;;;50.75;25.58;;;12.20;92.30;;;;;;5015334;28;20068;-69
2023/05/15 00:53:00;;;;;;;55.40;26.65;;;12.20;92.30;;;;;;5015898;28;20034;-68
2023/05/15 00:55:28;;;;;;;51.38;26.42;;;12.20;92.40;;;;;;5038985;28;20037;-67
2023/05/15 00:57:56;;;;;;;57.33;28.58;;;12.10;92.50;;;;;;5016955;28;20037;-69
2023/05/15 01:00:23;;;;;;;54.72;26.83;;;12.10;92.60;;;;;;5012548;28;20409;-68
2023/05/15 01:02:48;;;;;;;55.22;28.10;;;12.10;92.60;;;;;;5019667;28;20128;-68
2023/05/15 01:05:14;;;;;;;54.47;26.05;;;12.10;92.60;;;;;;5020776;28;20565;-68
2023/05/15 01:07:50;;;;;;;55.15;28.58;;;12.10;92.60;;;;;;5018794;28;20049;-69
2023/05/15 01:10:18;;;;;;;53.42;27.48;;;12.10;92.70;;;;;;5014302;28;20054;-69
2023/05/15 01:12:46;;;;;;;53.50;28.10;;;12.10;92.50;;;;;;5013456;28;20050;-69
2023/05/15 01:15:11;;;;;;;52.13;25.92;;;12.10;92.60;;;;;;5016108;28;22667;-68
2023/05/15 01:17:37;;;;;;;53.97;27.75;;;12.00;92.60;;;;;;5021362;28;20029;-68
2023/05/15 01:20:08;;;;;;;55.05;28.10;;;12.10;92.50;;;;;;5015902;28;20050;-69
2023/05/15 01:22:49;;;;;;;52.45;27.27;;;12.10;92.60;;;;;;5018258;28;20464;-68
2023/05/15 01:25:36;;;;;;;56.22;29.27;;;12.00;92.80;;;;;;5018780;28;20049;-68
2023/05/15 01:28:11;;;;;;;53.80;26.92;;;12.00;92.80;;;;;;5015869;28;20494;-68
2023/05/15 01:30:40;;;;;;;52.35;28.08;;;12.00;92.70;;;;;;5020079;28;20758;-68
2023/05/15 01:33:23;;;;;;;58.03;28.85;;;12.00;92.60;;;;;;5003640;28;20037;-68
2023/05/15 01:35:58;;;;;;;57.80;29.92;;;12.00;92.80;;;;;;5018601;28;20226;-68
2023/05/15 01:38:39;;;;;;;57.63;28.65;;;12.00;92.70;;;;;;5023161;28;20049;-68
2023/05/15 01:41:35;;;;;;;55.13;28.13;;;12.00;92.90;;;;;;4998371;28;20057;-68
2023/05/15 01:44:14;;;;;;;55.47;29.55;;;12.00;93.00;;;;;;5024871;28;20041;-67
2023/05/15 01:46:44;;;;;;;55.30;29.08;;;12.00;92.70;;;;;;5013190;28;20041;-69
2023/05/15 01:49:12;;;;;;;56.35;27.83;;;11.90;92.60;;;;;;5016141;28;20407;-69
2023/05/15 01:51:40;;;;;;;52.85;27.45;;;11.90;92.70;;;;;;5016789;28;20052;-68
2023/05/15 01:54:07;;;;;;;50.03;26.58;;;11.90;92.70;;;;;;5019156;28;20440;-68
2023/05/15 01:56:34;;;;;;;49.95;26.25;;;11.90;92.70;;;;;;5018014;28;20120;-68
2023/05/15 01:59:01;;;;;;;55.10;28.80;;;11.80;92.70;;;;;;5010933;28;20490;-68
2023/05/15 02:01:28;;;;;;;50.63;26.30;;;11.80;92.70;;;;;;5014139;28;20041;-68
2023/05/15 02:03:54;;;;;;;49.25;25.65;;;11.80;92.70;;;;;;5016194;28;20053;-68
2023/05/15 02:06:21;;;;;;;53.40;27.48;;;11.80;92.70;;;;;;5007494;28;20053;-68
2023/05/15 02:08:48;;;;;;;52.20;28.83;;;11.80;92.70;;;;;;5016099;28;20037;-69
2023/05/15 02:11:14;;;;;;;52.72;27.45;;;11.80;92.70;;;;;;5022857;28;20096;-69
2023/05/15 02:13:41;;;;;;;46.90;26.17;;;11.80;92.70;;;;;;5012152;28;20493;-69
2023/05/15 02:16:07;;;;;;;52.03;27.20;;;11.80;92.70;;;;;;5027488;28;20443;-69
2023/05/15 02:18:33;;;;;;;45.70;24.80;;;11.80;92.70;;;;;;5020442;28;20132;-68
2023/05/15 02:21:01;;;;;;;49.60;26.13;;;11.70;92.70;;;;;;5006833;28;20509;-68
2023/05/15 02:23:27;;;;;;;51.00;25.90;;;11.70;92.70;;;;;;5014408;28;20034;-68
2023/05/15 02:26:16;;;;;;;50.83;26.85;;;11.60;92.70;;;;;;5016121;28;20501;-68
2023/05/15 02:28:56;;;;;;;54.70;27.50;;;11.60;93.10;;;;;;5020456;28;20470;-69
2023/05/15 02:31:39;;;;;;;52.95;27.70;;;11.60;92.90;;;;;;5021570;28;20405;-68
2023/05/15 02:34:26;;;;;;;55.22;27.60;;;11.50;93.10;;;;;;5018533;28;20049;-69
2023/05/15 02:36:56;;;;;;;52.88;26.10;;;11.40;93.30;;;;;;5005974;28;20046;-69
2023/05/15 02:39:23;;;;;;;51.25;25.95;;;11.50;93.10;;;;;;5008403;28;20045;-69
2023/05/15 02:41:51;;;;;;;47.90;24.27;;;11.50;93.00;;;;;;5010712;28;20062;-68
2023/05/15 02:44:17;;;;;;;50.00;26.35;;;11.50;93.00;;;;;;4995640;28;20129;-69
2023/05/15 02:46:43;;;;;;;54.33;26.98;;;11.60;93.00;;;;;;5010849;28;20148;-68
2023/05/15 02:49:10;;;;;;;52.28;26.38;;;11.50;93.00;;;;;;5019550;28;20416;-68
2023/05/15 02:51:36;;;;;;;51.13;26.20;;;11.50;93.00;;;;;;5017421;28;20030;-68
2023/05/15 02:54:01;;;;;;;53.85;28.02;;;11.50;93.20;;;;;;5007907;28;20049;-68
2023/05/15 02:56:27;;;;;;;56.70;27.65;;;11.50;93.20;;;;;;5012993;28;20033;-69
2023/05/15 02:58:53;;;;;;;52.17;26.70;;;11.40;93.20;;;;;;5018821;28;20034;-68
2023/05/15 03:01:18;;;;;;;59.90;28.58;;;11.40;93.40;;;;;;5020136;28;20135;-68
2023/05/15 03:03:45;;;;;;;52.72;27.88;;;11.40;93.40;;;;;;5018219;28;20485;-69
2023/05/15 03:06:10;;;;;;;51.60;26.67;;;11.50;93.50;;;;;;5024907;28;20440;-68
2023/05/15 03:08:36;;;;;;;49.63;25.98;;;11.40;93.50;;;;;;5018254;28;20049;-69
2023/05/15 03:11:04;;;;;;;52.90;26.20;;;11.40;93.40;;;;;;5010957;28;20087;-68
2023/05/15 03:13:30;;;;;;;51.85;27.50;;;11.40;93.40;;;;;;5010552;28;20426;-68
2023/05/15 03:15:56;;;;;;;52.20;27.00;;;11.40;93.40;;;;;;5016282;28;20076;-69
2023/05/15 03:18:21;;;;;;;48.83;25.92;;;11.40;93.40;;;;;;5013597;28;20532;-68
2023/05/15 03:20:48;;;;;;;53.95;26.52;;;11.40;93.50;;;;;;5022179;28;20936;-68
2023/05/15 03:23:13;;;;;;;51.72;25.77;;;11.40;93.50;;;;;;5015709;28;20037;-69
2023/05/15 03:25:39;;;;;;;47.30;25.73;;;11.40;93.50;;;;;;5016147;28;20045;-69
2023/05/15 03:28:04;;;;;;;53.15;27.25;;;11.40;93.40;;;;;;5014900;28;20033;-68
2023/05/15 03:30:30;;;;;;;50.58;26.67;;;11.40;93.40;;;;;;5016125;28;20118;-69
2023/05/15 03:32:56;;;;;;;53.20;27.25;;;11.40;93.50;;;;;;5009278;28;20087;-69
2023/05/15 03:35:22;;;;;;;53.08;27.17;;;11.30;93.60;;;;;;4994212;28;20042;-68
2023/05/15 03:37:48;;;;;;;55.63;28.85;;;11.30;93.60;;;;;;5020079;28;20048;-69
2023/05/15 03:40:13;;;;;;;55.83;26.55;;;11.30;93.60;;;;;;5020722;28;20053;-69
2023/05/15 03:42:39;;;;;;;56.90;28.02;;;11.30;93.70;;;;;;5016353;28;20124;-68
2023/05/15 03:45:05;;;;;;;52.58;26.45;;;11.20;93.70;;;;;;5028561;28;20044;-68
2023/05/15 03:47:31;;;;;;;56.33;28.27;;;11.20;93.80;;;;;;5025111;28;20408;-68
2023/05/15 03:49:56;;;;;;;55.92;27.08;;;11.20;93.90;;;;;;5020882;28;20041;-69
2023/05/15 03:52:22;;;;;;;50.25;26.40;;;11.20;93.90;;;;;;5023023;28;20025;-69
2023/05/15 03:54:48;;;;;;;53.45;27.02;;;11.30;94.30;;;;;;5012628;28;20368;-69
2023/05/15 03:57:14;;;;;;;56.33;28.15;;;11.20;93.90;;;;;;5009162;28;20120;-69
2023/05/15 03:59:40;;;;;;;53.75;25.33;;;11.30;93.90;;;;;;5011125;28;20497;-68
2023/05/15 04:02:06;;;;;;;52.10;27.50;;;11.30;93.90;;;;;;5020427;28;20448;-67
2023/05/15 04:04:31;;;;;;;54.00;25.67;;;11.30;93.90;;;;;;5015600;28;20041;-69
2023/05/15 04:06:58;;;;;;;52.38;25.90;;;11.30;93.90;;;;;;5021732;28;20639;-69
2023/05/15 04:09:24;;;;;;;50.15;27.23;;;11.30;93.90;;;;;;5006711;28;20128;-68
2023/05/15 04:11:49;;;;;;;48.47;26.08;;;11.30;93.90;;;;;;5015363;28;20121;-70
2023/05/15 04:14:15;;;;;;;53.90;26.55;;;11.20;93.90;;;;;;5010580;28;20119;-68
2023/05/15 04:16:40;;;;;;;46.80;25.75;;;11.20;93.90;;;;;;5013664;28;20037;-69
2023/05/15 04:19:06;;;;;;;46.13;23.02;;;11.20;93.90;;;;;;5012356;28;20025;-69
2023/05/15 04:21:31;;;;;;;42.10;22.90;;;11.20;94.00;;;;;;5012443;28;20143;-69
2023/05/15 04:23:57;;;;;;;42.83;22.77;;;11.20;94.00;;;;;;5013346;28;20048;-68
2023/05/15 04:26:22;;;;;;;43.70;22.77;;;11.20;94.00;;;;;;5003304;28;20029;-69
2023/05/15 04:28:48;;;;;;;44.03;22.90;;;11.20;93.90;;;;;;5005721;28;20037;-69
2023/05/15 04:31:14;;;;;;;42.08;22.85;;;11.20;93.80;;;;;;5009403;28;20049;-69
2023/05/15 04:33:39;;;;;;;42.40;22.52;;;11.20;93.80;;;;;;5009993;28;20044;-69
2023/05/15 04:36:06;;;;;;;45.95;23.92;;;11.20;93.80;;;;;;5018903;28;20753;-69
2023/05/15 04:38:32;;;;;;;45.75;22.75;;;11.10;93.80;;;;;;5021283;28;20406;-69
2023/05/15 04:40:57;;;;;;;47.53;23.42;;;11.10;93.70;;;;;;5019061;28;20064;-69
2023/05/15 04:43:23;;;;;;;45.92;23.45;;;11.10;93.70;;;;;;5016075;28;20052;-69
2023/05/15 04:45:48;;;;;;;41.20;21.55;;;11.00;93.70;;;;;;5024197;28;20033;-68
2023/05/15 04:48:14;;;;;;;42.80;22.25;;;11.10;93.70;;;;;;5014198;28;20045;-68
2023/05/15 04:50:39;;;;;;;44.47;23.40;;;11.10;93.70;;;;;;5020005;28;20034;-68
2023/05/15 04:53:06;;;;;;;42.60;22.08;;;11.10;93.60;;;;;;5004880;28;20045;-70
2023/05/15 04:55:32;;;;;;;45.58;23.17;;;11.00;93.60;;;;;;5015167;28;20762;-69
2023/05/15 04:57:57;;;;;;;46.03;22.70;;;11.10;93.50;;;;;;5017832;28;20615;-69
2023/05/15 05:00:23;;;;;;;45.28;22.85;;;11.00;93.60;;;;;;5018500;28;20038;-69
2023/05/15 05:02:48;;;;;;;45.33;23.85;;;11.10;93.50;;;;;;5016208;28;20069;-67
2023/05/15 05:05:15;;;;;;;46.17;23.70;;;11.10;93.50;;;;;;5023385;28;20076;-69
2023/05/15 05:07:42;;;;;;;42.03;22.67;;;11.10;93.50;;;;;;5017947;28;20111;-69
2023/05/15 05:10:08;;;;;;;43.70;21.42;;;11.10;93.50;;;;;;5028604;28;20046;-69
2023/05/15 05:12:34;;;;;;;48.55;22.88;;;11.00;93.40;;;;;;5021301;28;20056;-68
2023/05/15 05:14:59;;;;;;;45.50;22.98;;;11.10;93.40;;;;;;5021899;28;20034;-69
2023/05/15 05:17:25;;;;;;;43.70;21.10;;;11.10;93.30;;;;;;5023065;28;20039;-70
2023/05/15 05:19:51;;;;;;;44.83;21.77;;;11.00;93.20;;;;;;5019576;28;20070;-67
2023/05/15 05:22:16;;;;;;;46.42;22.27;;;11.00;93.20;;;;;;5022015;28;20041;-69
2023/05/15 05:24:42;;;;;;;46.78;23.15;;;11.00;93.20;;;;;;5022798;28;20048;-69
2023/05/15 05:27:07;;;;;;;44.08;21.48;;;11.00;93.10;;;;;;4998910;28;20444;-69
2023/05/15 05:29:33;;;;;;;42.10;20.45;;;11.00;93.20;;;;;;5012869;28;20045;-69
2023/05/15 05:31:58;;;;;;;40.33;20.90;;;11.10;93.00;;;;;;5014969;28;20091;-69
2023/05/15 05:34:24;;;;;;;42.80;20.95;;;11.10;92.90;;;;;;5015097;28;20038;-69
2023/05/15 05:36:50;;;;;;;40.65;19.73;;;11.10;92.90;;;;;;5020301;28;20140;-69
2023/05/15 05:39:16;;;;;;;37.97;19.55;;;11.10;92.70;;;;;;5018870;28;20034;-70
2023/05/15 05:41:42;;;;;;;41.67;21.20;;;11.20;92.60;;;;;;5015467;28;20057;-70
2023/05/15 05:44:07;;;;;;;39.38;19.40;;;11.10;92.50;;;;;;5016893;28;20376;-69
2023/05/15 05:46:33;;;;;;;35.47;19.48;;;11.10;92.50;;;;;;5024128;28;20034;-69
2023/05/15 05:48:59;;;;;;;41.67;19.98;;;11.20;92.40;;;;;;5023477;28;20042;-69
2023/05/15 05:51:24;;;;;;;41.33;20.60;;;11.20;92.30;;;;;;5031760;28;20057;-69
2023/05/15 05:53:50;;;;;;;40.78;20.17;;;11.30;92.20;;;;;;5024452;28;20025;-69
2023/05/15 05:56:15;;;;;;;36.17;19.05;;;11.30;92.10;;;;;;5018888;28;20041;-68
2023/05/15 05:58:41;;;;;;;40.10;20.30;;;11.30;92.40;;;;;;5019284;28;20034;-69
2023/05/15 06:01:07;;;;;;;39.00;19.90;;;11.30;92.00;;;;;;5015527;28;20042;-69
2023/05/15 06:03:34;;;;;;;35.05;18.58;;;11.40;91.90;;;;;;4996028;28;20140;-69
2023/05/15 06:06:00;;;;;;;36.28;19.15;;;11.40;91.80;;;;;;5009450;28;20115;-68
2023/05/15 06:08:27;;;;;;;35.38;19.63;;;11.30;91.80;;;;;;5012545;28;20593;-69
2023/05/15 06:10:53;;;;;;;35.17;19.95;;;11.30;91.80;;;;;;5009184;28;20045;-68
2023/05/15 06:13:18;;;;;;;38.63;19.63;;;11.40;91.70;;;;;;5036148;28;20044;-69
2023/05/15 06:15:45;;;;;;;35.38;19.73;;;11.40;91.70;;;;;;5017858;28;20049;-69
2023/05/15 06:18:10;;;;;;;30.75;18.17;;;11.50;91.60;;;;;;5032614;28;20041;-69
2023/05/15 06:20:37;;;;;;;31.67;18.95;;;11.50;91.50;;;;;;5000648;28;20056;-69
2023/05/15 06:23:02;;;;;;;31.25;18.00;;;11.50;91.40;;;;;;5013792;28;20111;-69
2023/05/15 06:25:28;;;;;;;30.58;18.40;;;11.60;91.30;;;;;;5024449;28;20042;-68
2023/05/15 06:27:54;;;;;;;34.33;19.33;;;11.70;91.30;;;;;;5014545;28;20042;-69
2023/05/15 06:30:20;;;;;;;32.03;18.00;;;11.70;91.30;;;;;;5022666;28;20049;-69
2023/05/15 06:32:45;;;;;;;29.60;17.30;;;11.80;91.20;;;;;;5014362;28;20540;-69
2023/05/15 06:35:11;;;;;;;30.27;17.80;;;11.90;91.10;;;;;;5021213;28;20038;-69
2023/05/15 06:37:37;;;;;;;33.58;17.65;;;12.00;91.10;;;;;;5021964;28;20037;-69
2023/05/15 06:40:04;;;;;;;27.88;17.30;;;12.20;91.20;;;;;;5018828;28;20479;-69
2023/05/15 06:42:30;;;;;;;28.48;17.08;;;12.40;91.30;;;;;;5013878;28;20045;-69
2023/05/15 06:44:55;;;;;;;31.90;18.23;;;12.70;91.40;;;;;;5007996;28;20049;-69
2023/05/15 06:47:21;;;;;;;27.52;17.65;;;12.80;91.70;;;;;;4995947;28;20096;-69
2023/05/15 06:49:47;;;;;;;28.60;17.20;;;13.10;91.90;;;;;;5010394;28;20069;-69
2023/05/15 06:52:12;;;;;;;25.75;17.00;;;13.40;92.00;;;;;;5007852;28;20038;-69
2023/05/15 06:54:40;;;;;;;25.33;16.83;;;13.70;92.00;;;;;;5012720;28;20069;-68
2023/05/15 06:57:06;;;;;;;23.17;14.77;;;13.80;91.90;;;;;;5012711;28;20046;-70
2023/05/15 06:59:34;;;;;;;22.52;15.55;;;14.30;91.70;;;;;;5001556;28;20041;-69
2023/05/15 07:02:03;;;;;;;22.00;15.90;;;14.50;91.40;;;;;;5025528;28;20048;-69
2023/05/15 07:04:29;;;;;;;19.98;13.93;;;14.70;90.80;;;;;;5012746;28;20050;-69
2023/05/15 07:06:56;;;;;;;20.88;14.02;;;14.80;90.40;;;;;;5018373;28;20065;-70
2023/05/15 07:09:21;;;;;;;20.60;14.05;;;15.10;89.80;;;;;;5015559;28;20091;-69
2023/05/15 07:11:47;;;;;;;18.83;14.35;;;15.20;88.70;;;;;;5018490;28;20041;-69
2023/05/15 07:14:12;;;;;;;20.58;14.45;;;15.40;88.00;;;;;;5005088;28;20034;-67
2023/05/15 07:16:38;;;;;;;18.17;12.93;;;15.70;87.00;;;;;;5013672;28;20049;-70
2023/05/15 07:19:03;;;;;;;18.50;13.70;;;16.10;85.80;;;;;;5020374;28;20076;-69
2023/05/15 07:21:29;;;;;;;17.20;12.73;;;15.90;84.90;;;;;;5011418;28;20058;-70
2023/05/15 07:23:55;;;;;;;19.08;14.05;;;16.20;83.50;;;;;;5014107;28;20052;-70
2023/05/15 07:26:20;;;;;;;16.65;12.15;;;16.40;82.10;;;;;;5017348;28;20075;-69
2023/05/15 07:28:46;;;;;;;15.98;12.13;;;16.50;81.40;;;;;;5017214;28;20412;-68
2023/05/15 07:31:12;;;;;;;17.65;12.23;;;16.80;80.20;;;;;;5016096;28;20046;-70
2023/05/15 07:33:37;;;;;;;16.55;12.80;;;16.90;79.00;;;;;;5023777;28;20034;-69
2023/05/15 07:36:03;;;;;;;17.52;12.07;;;17.10;78.50;;;;;;5022259;28;20054;-70
2023/05/15 07:38:29;;;;;;;14.70;12.00;;;17.20;78.10;;;;;;5016617;28;20145;-70
2023/05/15 07:40:54;;;;;;;16.90;12.35;;;17.50;77.00;;;;;;5025013;28;20053;-70
2023/05/15 07:43:20;;;;;;;17.00;12.90;;;17.50;75.30;;;;;;5023078;28;20100;-70
2023/05/15 07:45:46;;;;;;;14.68;11.68;;;17.60;74.40;;;;;;5014307;28;20042;-69
2023/05/15 07:48:15;;;;;;;12.90;11.02;;;17.80;73.50;;;;;;5021197;28;20121;-69
2023/05/15 07:50:41;;;;;;;18.15;11.63;;;18.10;71.70;;;;;;5009557;28;20049;-69
2023/05/15 07:53:07;;;;;;;14.50;11.70;;;18.50;71.60;;;;;;5018270;28;20565;-70
2023/05/15 07:55:32;;;;;;;12.45;10.70;;;18.80;70.50;;;;;;5005198;28;20084;-69
2023/05/15 07:57:58;;;;;;;13.50;12.10;;;18.80;70.20;;;;;;5018974;28;20092;-70
2023/05/15 08:00:23;;;;;;;13.98;11.02;;;19.00;69.20;;;;;;5008482;28;20041;-70
2023/05/15 08:02:49;;;;;;;13.23;11.10;;;19.10;68.80;;;;;;5005472;28;20037;-68
2023/05/15 08:05:15;;;;;;;13.18;11.13;;;19.10;68.50;;;;;;5022748;28;20473;-68
2023/05/15 08:07:41;;;;;;;15.30;9.45;;;19.30;67.30;;;;;;5027070;28;20048;-70
2023/05/15 08:10:07;;;;;;;13.23;10.90;;;19.60;66.20;;;;;;5023500;28;20038;-71
2023/05/15 08:12:32;;;;;;;12.38;10.68;;;19.70;64.70;;;;;;5022548;28;20033;-70
2023/05/15 08:14:58;;;;;;;13.38;9.50;;;19.70;63.90;;;;;;5022530;28;20041;-70
2023/05/15 08:17:24;;;;;;;13.00;10.00;;;19.70;63.40;;;;;;5021874;28;20034;-70
2023/05/15 08:19:50;;;;;;;14.18;10.73;;;20.10;62.60;;;;;;5026471;28;20094;-70
2023/05/15 08:22:16;;;;;;;13.95;11.32;;;20.30;61.10;;;;;;5020489;28;20033;-70
2023/05/15 08:24:41;;;;;;;13.88;9.65;;;20.40;60.30;;;;;;5021847;28;20029;-70
2023/05/15 08:27:08;;;;;;;12.55;10.07;;;20.80;59.80;;;;;;5020917;28;20128;-70
2023/05/15 08:29:37;;;;;;;11.48;10.15;;;21.00;58.70;;;;;;5021194;28;20490;-70
2023/05/15 08:32:04;;;;;;;12.13;10.07;;;21.10;56.50;;;;;;5017702;28;20041;-70
2023/05/15 08:34:30;;;;;;;15.98;10.50;;;21.40;56.40;;;;;;5017679;28;20462;-70
2023/05/15 08:36:57;;;;;;;11.35;9.77;;;21.30;56.30;;;;;;5018499;28;20040;-71
2023/05/15 08:39:23;;;;;;;11.55;9.25;;;21.40;55.80;;;;;;5024772;28;20048;-69
2023/05/15 08:42:08;;;;;;;13.35;9.82;;;21.80;55.00;;;;;;5022146;28;20058;-69
2023/05/15 08:44:34;;;;;;;12.80;9.50;;;22.20;50.30;;;;;;5018774;28;20063;-69
2023/05/15 08:47:00;;;;;;;13.55;11.00;;;22.00;53.10;;;;;;5013731;28;20038;-70
2023/05/15 08:49:35;;;;;;;12.27;9.63;;;22.40;51.80;;;;;;5014267;28;20034;-70
2023/05/15 08:52:03;;;;;;;15.57;10.48;;;22.60;50.80;;;;;;5024279;28;20035;-71
2023/05/15 08:54:29;;;;;;;12.35;10.40;;;23.10;50.40;;;;;;5020373;28;20042;-70
2023/05/15 08:56:54;;;;;;;11.20;9.57;;;23.60;49.40;;;;;;5018356;28;20383;-69
2023/05/15 08:59:21;;;;;;;11.43;8.45;;;23.90;48.90;;;;;;5020358;28;20030;-71
2023/05/15 09:01:46;;;;;;;9.45;8.40;;;24.10;47.40;;;;;;5015325;28;20064;-69
2023/05/15 09:04:12;;;;;;;9.25;7.93;;;24.40;47.10;;;;;;5019686;28;20030;-70
2023/05/15 09:06:39;;;;;;;9.63;8.27;;;25.00;46.30;;;;;;5013741;28;20033;-70
2023/05/15 09:09:05;;;;;;;12.38;8.88;;;25.30;45.40;;;;;;5013835;28;20045;-69
2023/05/15 09:11:31;;;;;;;10.35;8.93;;;25.50;44.30;;;;;;5028009;28;20087;-70
2023/05/15 09:14:00;;;;;;;9.65;7.85;;;25.80;43.10;;;;;;5029804;28;20520;-69
2023/05/15 09:16:26;;;;;;;12.43;8.90;;;25.90;42.10;;;;;;5024024;28;20045;-70
2023/05/15 09:18:52;;;;;;;10.57;9.48;;;26.00;42.90;;;;;;5025577;28;20037;-71
2023/05/15 09:21:26;;;;;;;10.20;9.15;;;26.00;42.10;;;;;;5014128;28;20091;-70
2023/05/15 09:23:53;;;;;;;10.57;9.52;;;26.20;41.10;;;;;;5017522;28;20478;-70
2023/05/15 09:26:20;;;;;;;12.07;9.52;;;26.30;40.70;;;;;;5017340;28;20511;-70
2023/05/15 09:28:46;;;;;;;10.40;9.40;;;26.30;40.00;;;;;;5019848;28;20537;-70
2023/05/15 09:31:12;;;;;;;8.98;8.02;;;26.40;40.10;;;;;;5031478;28;20065;-69
2023/05/15 09:33:39;;;;;;;9.10;8.02;;;27.00;39.70;;;;;;5033408;28;20622;-69
2023/05/15 09:36:08;;;;;;;8.07;7.28;;;26.60;39.80;;;;;;5030399;28;20037;-69
2023/05/15 09:38:46;;;;;;;10.50;8.95;;;26.90;39.30;;;;;;5027782;28;20041;-70
2023/05/15 09:41:12;;;;;;;13.63;8.98;;;26.70;38.90;;;;;;5031908;28;20089;-70
2023/05/15 09:43:39;;;;;;;11.15;8.55;;;26.00;39.60;;;;;;5030092;28;20072;-70
2023/05/15 09:46:07;;;;;;;8.15;6.90;;;25.80;39.80;;;;;;5022675;28;20370;-70
2023/05/15 09:48:34;;;;;;;7.47;6.78;;;25.40;40.70;;;;;;5026053;28;20029;-70
2023/05/15 09:51:01;;;;;;;8.85;7.93;;;24.70;42.20;;;;;;5029113;28;20080;-69
2023/05/15 09:53:28;;;;;;;9.40;7.45;;;24.00;42.40;;;;;;5024834;28;20042;-70
2023/05/15 09:55:53;;;;;;;9.40;7.78;;;23.80;43.00;;;;;;5011095;28;20073;-69
2023/05/15 09:58:19;;;;;;;8.10;7.30;;;23.90;42.70;;;;;;5021766;28;20068;-71
2023/05/15 10:00:45;;;;;;;8.18;7.38;;;24.00;41.70;;;;;;5021717;28;20073;-69
2023/05/15 10:03:11;;;;;;;8.68;7.22;;;24.60;41.50;;;;;;5021930;28;20084;-69
2023/05/15 10:05:37;;;;;;;9.75;7.50;;;25.40;40.70;;;;;;5021288;28;20400;-69
2023/05/15 10:08:04;;;;;;;6.82;6.20;;;25.80;39.70;;;;;;5016462;28;20041;-69
2023/05/15 10:10:30;;;;;;;12.65;6.55;;;26.40;38.60;;;;;;5029434;28;20132;-69
2023/05/15 10:13:00;;;;;;;9.60;6.35;;;27.20;37.70;;;;;;5026152;28;20528;-70
2023/05/15 10:15:27;;;;;;;8.07;5.93;;;27.90;37.30;;;;;;5029476;28;20037;-69
2023/05/15 10:17:53;;;;;;;7.93;6.03;;;28.10;36.00;;;;;;5028622;28;20039;-69
2023/05/15 10:20:22;;;;;;;7.57;6.07;;;28.10;35.20;;;;;;5031527;28;20124;-69
2023/05/15 10:22:58;;;;;;;7.97;6.15;;;28.00;34.40;;;;;;5031618;28;20029;-70
2023/05/15 10:25:45;;;;;;;7.53;6.22;;;28.20;35.00;;;;;;5033452;28;20470;-69
2023/05/15 10:28:11;;;;;;;8.55;6.20;;;27.90;33.60;;;;;;5022893;28;20045;-70
2023/05/15 10:30:37;;;;;;;9.73;6.32;;;28.00;35.60;;;;;;5015146;28;20038;-70
2023/05/15 10:33:04;;;;;;;5.35;4.85;;;27.70;35.80;;;;;;5024610;28;20068;-70
2023/05/15 10:35:29;;;;;;;7.30;6.60;;;27.50;36.20;;;;;;5029808;28;20033;-70
2023/05/15 10:37:56;;;;;;;7.28;5.45;;;26.40;36.70;;;;;;5028687;28;20556;-69
2023/05/15 10:40:22;;;;;;;6.97;5.88;;;25.80;37.90;;;;;;5020863;28;20387;-69
2023/05/15 10:42:48;;;;;;;6.68;5.93;;;25.20;38.20;;;;;;5028557;28;20045;-68
2023/05/15 10:45:14;;;;;;;7.43;5.93;;;25.20;37.40;;;;;;5021381;28;20057;-68
2023/05/15 10:47:41;;;;;;;8.45;6.65;;;25.00;38.00;;;;;;5028388;28;20049;-69
2023/05/15 10:50:08;;;;;;;6.03;5.43;;;25.00;38.10;;;;;;5031931;28;20507;-69
2023/05/15 10:52:35;;;;;;;6.20;5.60;;;24.60;39.10;;;;;;5027956;28;20033;-69
2023/05/15 10:55:03;;;;;;;9.23;5.60;;;24.40;40.10;;;;;;5031155;28;20046;-69
2023/05/15 10:57:29;;;;;;;6.45;4.88;;;24.10;40.50;;;;;;5028097;28;20048;-68
2023/05/15 10:59:55;;;;;;;5.70;4.50;;;23.60;40.90;;;;;;5017465;28;20029;-69
2023/05/15 11:02:25;;;;;;;7.20;4.57;;;23.20;40.40;;;;;;5028629;28;20044;-69
2023/05/15 11:04:57;;;;;;;;;;;23.00;40.70;;;;;;5031722;28;20044;-69
2023/05/15 11:07:23;;;;;;;5.28;4.78;;;22.90;41.40;;;;;;5018765;28;19917;-68
2023/05/15 11:09:50;;;;;;;6.05;5.45;;;22.90;41.90;;;;;;5021279;28;20040;-69
2023/05/15 11:12:15;;;;;;;7.78;6.05;;;22.90;42.20;;;;;;5021468;28;20041;-69
2023/05/15 11:15:02;;;;;;;6.07;5.00;;;22.90;42.00;;;;;;5028006;28;20048;-69
2023/05/15 11:17:31;;;;;;;6.00;4.60;;;23.00;41.90;;;;;;5021766;28;20390;-69
2023/05/15 11:19:58;;;;;;;5.60;3.75;;;22.90;41.60;;;;;;5030590;28;20057;-69
2023/05/15 11:22:26;;;;;;;7.40;5.20;;;23.00;41.60;;;;;;5031595;28;20112;-68
2023/05/15 11:25:11;;;;;;;8.00;5.88;;;22.90;41.20;;;;;;5030866;28;20037;-69
2023/05/15 11:27:39;;;;;;;27.52;7.85;;;22.80;41.50;;;;;;5030572;28;20123;-69
2023/05/15 11:30:12;;;;;;;12.23;5.78;;;22.70;41.30;;;;;;5024349;28;20042;-69
2023/05/15 11:33:03;;;;;;;6.93;5.43;;;23.00;41.90;;;;;;5010789;28;20096;-69
2023/05/15 11:35:33;;;;;;;;;;;23.10;43.10;;;;;;5015521;28;20095;-69
2023/05/15 11:38:10;;;;;;;5.78;5.18;;;23.00;44.10;;;;;;5026421;28;19925;-69
2023/05/15 11:40:57;;;;;;;6.93;6.15;;;23.30;44.50;;;;;;5030792;28;20053;-68
2023/05/15 11:43:36;;;;;;;7.72;6.93;;;23.20;44.70;;;;;;5032930;28;20415;-69
2023/05/15 11:46:01;;;;;;;6.97;6.22;;;23.10;43.80;;;;;;5011026;28;20045;-69
2023/05/15 11:48:36;;;;;;;6.95;5.95;;;23.20;43.60;;;;;;5010124;28;20055;-69
2023/05/15 11:51:03;;;;;;;7.13;5.95;;;23.30;43.80;;;;;;5012274;28;20521;-69
2023/05/15 11:53:29;;;;;;;8.00;6.57;;;23.50;43.60;;;;;;5012690;28;20046;-68
2023/05/15 11:55:55;;;;;;;7.63;6.07;;;23.40;43.50;;;;;;5016026;28;20397;-69
2023/05/15 11:58:22;;;;;;;7.60;6.00;;;23.40;43.60;;;;;;5012700;28;20034;-68
2023/05/15 12:00:50;;;;;;;10.32;7.28;;;23.40;44.10;;;;;;5020149;28;20052;-68
2023/05/15 12:03:37;;;;;;;7.72;6.50;;;23.30;43.90;;;;;;5011344;28;20041;-68
2023/05/15 12:06:03;;;;;;;9.05;5.35;;;23.20;43.80;;;;;;5024012;28;20045;-68
2023/05/15 12:08:33;;;;;;;7.50;5.80;;;23.40;43.70;;;;;;5015809;28;20119;-68
2023/05/15 12:11:00;;;;;;;5.20;4.05;;;23.40;43.70;;;;;;5019604;28;20771;-68
2023/05/15 12:13:26;;;;;;;7.13;5.68;;;23.50;44.10;;;;;;5029101;28;20045;-69
2023/05/15 12:15:54;;;;;;;9.77;6.82;;;23.50;44.20;;;;;;5024679;28;20033;-68
2023/05/15 12:18:19;;;;;;;7.05;5.85;;;23.60;43.50;;;;;;5026035;28;20132;-68
2023/05/15 12:20:45;;;;;;;6.95;5.53;;;23.30;43.70;;;;;;5009682;28;20512;-68
2023/05/15 12:23:15;;;;;;;7.28;5.50;;;23.20;44.00;;;;;;5019565;28;20088;-66
2023/05/15 12:25:42;;;;;;;9.90;6.73;;;23.40;44.40;;;;;;5022468;28;20927;-67
2023/05/15 12:28:07;;;;;;;7.03;6.30;;;23.60;44.00;;;;;;5019923;28;20268;-68
2023/05/15 12:30:34;;;;;;;7.85;6.30;;;23.70;43.30;;;;;;5021868;28;20356;-67
2023/05/15 12:33:05;;;;;;;8.05;5.50;;;24.20;42.90;;;;;;5032257;28;20048;-68
2023/05/15 12:35:35;;;;;;;7.72;5.70;;;24.40;42.70;;;;;;4998923;28;20041;-68